createdAt,value
2018-09-24T00:02:03.787Z,31.47
2018-09-24T00:04:38.574Z,37.17
2018-09-24T00:07:13.345Z,32.27
2018-09-24T00:09:48.057Z,30.20
2018-09-24T00:12:22.566Z,27.07
2018-09-24T00:14:57.123Z,29.73
2018-09-24T00:17:31.724Z,29.57
2018-09-24T00:20:06.592Z,23.47
2018-09-24T00:22:40.984Z,27.03
2018-09-24T00:25:15.654Z,24.43
2018-09-24T00:27:50.291Z,24.47
2018-09-24T00:30:24.864Z,24.70
2018-09-24T00:32:59.469Z,24.10
2018-09-24T00:35:34.103Z,26.93
2018-09-24T00:38:08.884Z,24.03
2018-09-24T00:40:43.359Z,27.30
2018-09-24T00:43:17.865Z,29.20
2018-09-24T00:45:52.328Z,25.47
2018-09-24T00:48:27.181Z,25.17
2018-09-24T00:51:01.720Z,23.50
2018-09-24T00:53:36.172Z,28.00
2018-09-24T00:56:10.805Z,31.63
2018-09-24T00:58:45.240Z,27.00
2018-09-24T01:01:19.852Z,29.83
2018-09-24T01:03:54.394Z,33.53
2018-09-24T01:06:29.049Z,29.33
2018-09-24T01:09:04.021Z,26.63
2018-09-24T01:11:38.798Z,26.23
2018-09-24T01:14:13.363Z,34.77
2018-09-24T01:16:47.870Z,35.10
2018-09-24T01:19:22.568Z,31.67
2018-09-24T01:21:57.188Z,29.70
2018-09-24T01:24:31.865Z,27.50
2018-09-24T01:27:06.544Z,27.40
2018-09-24T01:29:41.142Z,30.73
2018-09-24T01:32:15.680Z,28.90
2018-09-24T01:34:50.361Z,27.10
2018-09-24T01:37:24.867Z,25.93
2018-09-24T01:39:59.884Z,26.23
2018-09-24T01:42:34.560Z,26.57
2018-09-24T01:45:08.862Z,22.83
2018-09-24T01:47:43.491Z,21.97
2018-09-24T01:50:17.726Z,22.87
2018-09-24T01:52:52.105Z,29.80
2018-09-24T01:55:26.797Z,28.23
2018-09-24T01:58:01.151Z,27.30
2018-09-24T02:00:35.552Z,28.83
2018-09-24T02:03:09.940Z,31.40
2018-09-24T02:05:44.415Z,27.37
2018-09-24T02:08:18.750Z,26.33
2018-09-24T02:10:53.124Z,27.50
2018-09-24T02:13:27.578Z,26.13
2018-09-24T02:16:01.980Z,29.63
2018-09-24T02:18:36.391Z,31.23
2018-09-24T02:21:10.676Z,29.40
2018-09-24T02:23:45.440Z,28.20
2018-09-24T02:26:19.640Z,24.37
2018-09-24T02:28:54.371Z,27.20
2018-09-24T02:31:28.992Z,27.83
2018-09-24T02:34:03.263Z,34.20
2018-09-24T02:36:37.665Z,29.00
2018-09-24T02:39:12.651Z,25.90
2018-09-24T02:41:48.424Z,28.87
2018-09-24T02:44:24.257Z,24.03
2018-09-24T02:46:58.592Z,27.37
2018-09-24T02:49:34.591Z,31.17
2018-09-24T02:52:08.851Z,26.47
2018-09-24T02:54:43.128Z,25.07
2018-09-24T02:57:17.448Z,29.70
2018-09-24T02:59:51.835Z,28.10
2018-09-24T03:02:26.296Z,32.37
2018-09-24T03:05:00.883Z,28.87
2018-09-24T03:07:35.831Z,32.43
2018-09-24T03:10:10.108Z,29.87
2018-09-24T03:13:00.479Z,30.50
2018-09-24T03:15:38.307Z,28.47
2018-09-24T03:18:12.708Z,31.97
2018-09-24T03:23:50.367Z,36.30
2018-09-24T03:26:24.986Z,22.63
2018-09-24T03:28:59.363Z,30.80
2018-09-24T03:31:36.785Z,29.97
2018-09-24T03:34:14.385Z,31.60
2018-09-24T03:36:49.589Z,38.27
2018-09-24T03:39:24.289Z,25.97
2018-09-24T03:41:59.002Z,30.17
2018-09-24T03:44:33.565Z,26.47
2018-09-24T03:47:08.197Z,28.00
2018-09-24T03:49:42.680Z,31.73
2018-09-24T03:52:17.517Z,26.67
2018-09-24T03:54:52.597Z,30.07
2018-09-24T03:57:27.189Z,31.97
2018-09-24T04:00:01.664Z,23.47
2018-09-24T04:02:36.253Z,35.17
2018-09-24T04:05:16.106Z,27.03
2018-09-24T04:07:55.968Z,26.77
2018-09-24T04:10:35.761Z,29.23
2018-09-24T04:13:15.825Z,24.20
2018-09-24T04:15:55.824Z,25.13
2018-09-24T04:18:35.544Z,24.10
2018-09-24T04:21:15.413Z,28.93
2018-09-24T04:23:55.257Z,24.87
2018-09-24T04:26:35.246Z,25.50
2018-09-24T04:29:15.100Z,33.47
2018-09-24T04:31:55.223Z,25.23
2018-09-24T04:34:35.099Z,27.90
2018-09-24T04:37:14.982Z,24.57
2018-09-24T04:39:54.764Z,24.20
2018-09-24T04:42:34.647Z,35.63
2018-09-24T04:45:14.534Z,24.07
2018-09-24T04:47:54.268Z,20.00
2018-09-24T04:50:34.233Z,23.93
2018-09-24T04:53:14.267Z,23.70
2018-09-24T04:55:54.093Z,24.10
2018-09-24T04:58:33.937Z,33.87
2018-09-24T05:01:13.848Z,29.37
2018-09-24T05:03:53.581Z,21.17
2018-09-24T05:06:33.413Z,28.23
2018-09-24T05:09:13.824Z,36.47
2018-09-24T05:11:53.665Z,32.40
2018-09-24T05:14:33.614Z,28.10
2018-09-24T05:17:13.352Z,27.87
2018-09-24T05:19:53.330Z,28.10
2018-09-24T05:22:33.201Z,27.27
2018-09-24T05:25:13.137Z,29.67
2018-09-24T05:27:53.069Z,28.90
2018-09-24T05:30:33.036Z,27.87
2018-09-24T05:33:12.922Z,27.33
2018-09-24T05:35:52.981Z,22.43
2018-09-24T05:38:32.951Z,39.60
2018-09-24T05:41:12.867Z,24.73
2018-09-24T05:43:52.669Z,35.60
2018-09-24T05:46:32.631Z,32.47
2018-09-24T05:49:12.356Z,24.73
2018-09-24T05:51:52.280Z,21.53
2018-09-24T05:54:32.137Z,28.43
2018-09-24T05:57:12.137Z,22.97
2018-09-24T05:59:52.180Z,25.40
2018-09-24T06:02:31.985Z,21.97
2018-09-24T06:05:11.869Z,23.97
2018-09-24T06:07:51.789Z,21.43
2018-09-24T06:10:31.688Z,19.70
2018-09-24T06:13:11.886Z,20.90
2018-09-24T06:15:51.826Z,22.07
2018-09-24T06:18:31.727Z,24.60
2018-09-24T06:21:11.900Z,16.97
2018-09-24T06:23:51.809Z,20.77
2018-09-24T06:26:32.133Z,12.77
2018-09-24T06:29:12.027Z,14.70
2018-09-24T06:31:52.185Z,13.47
2018-09-24T06:37:38.227Z,13.27
2018-09-24T06:40:18.053Z,16.67
2018-09-24T06:42:57.988Z,12.37
2018-09-24T06:45:39.811Z,8.47
2018-09-24T06:51:23.135Z,6.13
2018-09-24T06:54:02.904Z,11.80
2018-09-24T06:56:42.739Z,7.10
2018-09-24T06:59:22.676Z,6.63
2018-09-24T07:02:02.500Z,6.13
2018-09-24T07:04:42.309Z,8.63
2018-09-24T07:07:22.152Z,4.53
2018-09-24T07:10:02.005Z,5.57
2018-09-24T07:12:41.684Z,5.10
2018-09-24T07:15:21.532Z,4.40
2018-09-24T07:18:01.413Z,11.87
2018-09-24T07:20:41.284Z,4.43
2018-09-24T07:23:21.227Z,4.37
2018-09-24T07:26:01.152Z,7.60
2018-09-24T07:28:41.125Z,7.13
2018-09-24T07:31:21.032Z,5.73
2018-09-24T07:34:00.916Z,10.70
2018-09-24T07:36:40.816Z,4.93
2018-09-24T07:39:20.688Z,8.70
2018-09-24T07:42:00.700Z,9.10
2018-09-24T07:44:40.587Z,8.67
2018-09-24T07:47:20.216Z,4.83
2018-09-24T07:50:00.284Z,8.33
2018-09-24T07:52:40.196Z,6.20
2018-09-24T07:55:20.365Z,11.13
2018-09-24T07:58:07.103Z,5.53
2018-09-24T08:00:46.888Z,9.77
2018-09-24T08:03:26.789Z,8.60
2018-09-24T08:06:06.707Z,7.00
2018-09-24T08:08:46.556Z,11.63
2018-09-24T08:11:26.348Z,7.30
2018-09-24T08:14:06.180Z,10.23
2018-09-24T08:16:46.154Z,13.40
2018-09-24T08:19:25.918Z,6.50
2018-09-24T08:22:05.944Z,7.47
2018-09-24T08:24:46.044Z,7.97
2018-09-24T08:27:25.923Z,12.17
2018-09-24T08:30:05.972Z,12.40
2018-09-24T08:32:45.761Z,9.10
2018-09-24T08:35:25.884Z,11.10
2018-09-24T08:38:05.687Z,8.37
2018-09-24T08:40:45.607Z,9.93
2018-09-24T08:43:25.668Z,8.83
2018-09-24T08:46:05.516Z,12.27
2018-09-24T08:48:45.417Z,7.13
2018-09-24T08:51:25.269Z,7.53
2018-09-24T08:54:05.257Z,9.67
2018-09-24T08:56:45.121Z,9.63
2018-09-24T08:59:25.243Z,9.00
2018-09-24T09:02:05.046Z,12.63
2018-09-24T09:04:45.008Z,8.13
2018-09-24T09:07:25.400Z,6.87
2018-09-24T09:10:05.269Z,8.93
2018-09-24T09:12:45.133Z,6.00
2018-09-24T09:15:25.173Z,4.73
2018-09-24T09:18:05.082Z,4.70
2018-09-24T09:20:44.823Z,5.27
2018-09-24T09:23:24.712Z,5.90
2018-09-24T09:26:04.604Z,3.70
2018-09-24T09:28:44.436Z,5.50
2018-09-24T09:31:24.343Z,5.10
2018-09-24T09:34:04.133Z,6.83
2018-09-24T09:36:44.069Z,3.37
2018-09-24T09:39:23.973Z,6.30
2018-09-24T09:42:04.187Z,7.10
2018-09-24T09:44:43.856Z,7.70
2018-09-24T09:47:24.092Z,6.17
2018-09-24T09:50:03.861Z,3.20
2018-09-24T09:52:43.688Z,9.33
2018-09-24T09:55:23.682Z,6.43
2018-09-24T09:58:03.604Z,6.10
2018-09-24T10:00:43.574Z,4.10
2018-09-24T10:03:23.378Z,4.10
2018-09-24T10:06:03.261Z,7.17
2018-09-24T10:08:43.514Z,6.93
2018-09-24T10:11:23.533Z,6.40
2018-09-24T10:14:05.918Z,4.73
2018-09-24T10:16:51.805Z,4.03
2018-09-24T10:19:32.923Z,3.87
2018-09-24T10:22:12.977Z,3.93
2018-09-24T10:24:52.813Z,4.70
2018-09-24T10:27:32.662Z,2.57
2018-09-24T10:30:12.665Z,5.20
2018-09-24T10:32:52.477Z,5.73
2018-09-24T10:35:32.421Z,6.00
2018-09-24T10:38:12.473Z,5.10
2018-09-24T10:40:52.348Z,2.27
2018-09-24T10:43:35.833Z,4.37
2018-09-24T10:46:15.614Z,4.33
2018-09-24T10:48:55.621Z,4.70
2018-09-24T10:51:35.433Z,7.83
2018-09-24T10:54:17.082Z,5.47
2018-09-24T10:56:56.713Z,6.40
2018-09-24T10:59:37.200Z,3.13
2018-09-24T11:02:17.054Z,3.87
2018-09-24T11:04:57.223Z,6.70
2018-09-24T11:07:37.110Z,3.67
2018-09-24T11:10:17.103Z,5.63
2018-09-24T11:12:57.167Z,3.80
2018-09-24T11:15:37.041Z,4.90
2018-09-24T11:18:17.040Z,2.73
2018-09-24T11:20:57.173Z,2.00
2018-09-24T11:23:37.072Z,4.87
2018-09-24T11:28:57.164Z,3.47
2018-09-24T11:31:42.078Z,3.87
2018-09-24T11:34:25.420Z,3.03
2018-09-24T11:37:18.080Z,3.70
2018-09-24T11:39:57.923Z,4.73
2018-09-24T11:42:37.934Z,9.20
2018-09-24T11:45:18.371Z,5.47
2018-09-24T11:50:57.149Z,6.43
2018-09-24T11:53:37.133Z,2.37
2018-09-24T11:56:17.093Z,4.07
2018-09-24T11:58:57.222Z,2.90
2018-09-24T12:01:37.044Z,8.03
2018-09-24T12:04:17.132Z,3.97
2018-09-24T12:06:57.029Z,2.40
2018-09-24T12:09:36.925Z,3.87
2018-09-24T12:12:16.707Z,7.43
2018-09-24T12:14:56.532Z,4.13
2018-09-24T12:17:36.423Z,6.33
2018-09-24T12:20:16.396Z,4.13
2018-09-24T12:22:56.225Z,3.90
2018-09-24T12:25:36.106Z,4.13
2018-09-24T12:28:15.973Z,3.67
2018-09-24T12:30:55.741Z,3.10
2018-09-24T12:33:35.536Z,3.60
2018-09-24T12:36:15.404Z,6.73
2018-09-24T12:38:55.368Z,5.50
2018-09-24T12:41:35.158Z,4.83
2018-09-24T12:44:15.014Z,3.17
2018-09-24T12:46:54.978Z,3.03
2018-09-24T12:49:34.939Z,3.97
2018-09-24T12:52:14.962Z,5.00
2018-09-24T12:54:54.798Z,2.53
2018-09-24T12:57:34.741Z,4.43
2018-09-24T13:00:14.784Z,4.27
2018-09-24T13:02:54.838Z,5.87
2018-09-24T13:05:34.683Z,2.53
2018-09-24T13:08:14.573Z,7.53
2018-09-24T13:10:54.224Z,4.27
2018-09-24T13:13:34.105Z,3.27
2018-09-24T13:16:14.046Z,5.27
2018-09-24T13:18:53.873Z,4.10
2018-09-24T13:21:33.745Z,3.30
2018-09-24T13:24:13.605Z,2.77
2018-09-24T13:26:53.455Z,2.77
2018-09-24T13:29:33.298Z,2.83
2018-09-24T13:32:13.225Z,5.53
2018-09-24T13:34:53.229Z,5.10
2018-09-24T13:37:33.188Z,4.70
2018-09-24T13:40:13.054Z,6.10
2018-09-24T13:42:52.849Z,3.80
2018-09-24T13:45:32.814Z,3.57
2018-09-24T13:48:12.745Z,4.90
2018-09-24T13:50:52.728Z,2.30
2018-09-24T13:53:32.761Z,3.50
2018-09-24T13:56:12.585Z,2.00
2018-09-24T13:58:52.541Z,3.43
2018-09-24T14:01:32.994Z,11.73
2018-09-24T14:04:12.948Z,6.03
2018-09-24T14:06:52.865Z,4.03
2018-09-24T14:09:32.664Z,3.97
2018-09-24T14:12:12.580Z,5.67
2018-09-24T14:14:52.456Z,4.43
2018-09-24T14:17:32.635Z,4.40
2018-09-24T14:20:12.578Z,6.83
2018-09-24T14:22:52.525Z,4.30
2018-09-24T14:25:32.410Z,4.77
2018-09-24T14:28:12.586Z,5.67
2018-09-24T14:30:52.479Z,4.53
2018-09-24T14:33:32.519Z,7.97
2018-09-24T14:36:12.701Z,4.43
2018-09-24T14:38:52.544Z,4.97
2018-09-24T14:41:32.457Z,5.47
2018-09-24T14:44:12.164Z,6.07
2018-09-24T14:46:52.051Z,5.40
2018-09-24T14:49:31.973Z,4.77
2018-09-24T14:52:11.948Z,3.87
2018-09-24T14:54:52.083Z,2.87
2018-09-24T14:57:31.851Z,4.97
2018-09-24T15:00:11.822Z,4.63
2018-09-24T15:02:51.745Z,5.57
2018-09-24T15:05:31.533Z,5.87
2018-09-24T15:08:11.381Z,8.53
2018-09-24T15:10:51.277Z,5.03
2018-09-24T15:13:31.101Z,5.03
2018-09-24T15:16:10.921Z,5.57
2018-09-24T15:18:51.147Z,3.83
2018-09-24T15:21:31.013Z,4.90
2018-09-24T15:24:10.937Z,4.20
2018-09-24T15:26:50.776Z,5.47
2018-09-24T15:29:30.569Z,5.70
2018-09-24T15:32:10.526Z,7.30
2018-09-24T15:34:50.557Z,2.13
2018-09-24T15:37:30.396Z,7.73
2018-09-24T15:40:10.461Z,5.67
2018-09-24T15:42:50.248Z,6.50
2018-09-24T15:45:30.449Z,6.30
2018-09-24T15:48:11.361Z,6.60
2018-09-24T15:50:51.652Z,4.70
2018-09-24T15:56:31.291Z,10.63
2018-09-24T15:59:11.349Z,3.40
2018-09-24T16:01:51.148Z,3.97
2018-09-24T16:04:30.993Z,5.07
2018-09-24T16:07:10.753Z,13.57
2018-09-24T16:09:50.732Z,9.73
2018-09-24T16:12:30.680Z,6.30
2018-09-24T16:15:11.441Z,6.33
2018-09-24T16:17:51.564Z,5.37
2018-09-24T16:20:31.459Z,5.27
2018-09-24T16:23:11.536Z,3.67
2018-09-24T16:25:51.513Z,6.37
2018-09-24T16:28:31.189Z,5.83
2018-09-24T16:31:11.311Z,5.27
2018-09-24T16:33:51.171Z,8.73
2018-09-24T16:36:31.076Z,8.80
2018-09-24T16:39:13.436Z,3.50
2018-09-24T16:41:53.287Z,5.03
2018-09-24T16:44:33.240Z,8.27
2018-09-24T16:47:13.201Z,9.50
2018-09-24T16:49:53.085Z,7.77
2018-09-24T16:52:32.956Z,12.90
2018-09-24T16:55:12.753Z,10.43
2018-09-24T16:57:52.660Z,6.67
2018-09-24T17:00:32.516Z,10.27
2018-09-24T17:03:12.468Z,10.47
2018-09-24T17:05:52.367Z,11.60
2018-09-24T17:08:32.204Z,9.90
2018-09-24T17:11:12.103Z,8.37
2018-09-24T17:13:51.993Z,7.43
2018-09-24T17:16:32.134Z,11.60
2018-09-24T17:19:11.886Z,7.47
2018-09-24T17:21:51.647Z,8.67
2018-09-24T17:24:31.620Z,6.07
2018-09-24T17:27:11.424Z,8.50
2018-09-24T17:29:51.247Z,3.37
2018-09-24T17:32:31.045Z,6.53
2018-09-24T17:35:11.477Z,6.63
2018-09-24T17:37:51.085Z,4.67
2018-09-24T17:40:31.064Z,5.27
2018-09-24T17:43:10.952Z,11.33
2018-09-24T17:45:50.906Z,3.33
2018-09-24T17:48:30.721Z,4.50
2018-09-24T17:51:10.453Z,5.83
2018-09-24T17:53:50.297Z,4.30
2018-09-24T17:56:30.193Z,6.53
2018-09-24T17:59:10.025Z,6.17
2018-09-24T18:01:49.839Z,4.40
2018-09-24T18:04:42.408Z,8.27
2018-09-24T18:07:22.793Z,14.73
2018-09-24T18:10:02.609Z,8.70
2018-09-24T18:12:42.641Z,6.77
2018-09-24T18:15:22.461Z,8.23
2018-09-24T18:18:02.292Z,5.50
2018-09-24T18:20:42.253Z,9.83
2018-09-24T18:23:22.233Z,6.37
2018-09-24T18:26:02.241Z,6.73
2018-09-24T18:28:42.119Z,3.90
2018-09-24T18:31:22.602Z,5.40
2018-09-24T18:34:02.565Z,6.70
2018-09-24T18:36:42.436Z,4.60
2018-09-24T18:39:22.338Z,5.60
2018-09-24T18:42:02.238Z,9.60
2018-09-24T18:44:42.052Z,3.77
2018-09-24T18:47:21.901Z,9.00
2018-09-24T18:50:02.018Z,4.93
2018-09-24T18:52:41.893Z,4.47
2018-09-24T18:55:21.774Z,12.93
2018-09-24T18:58:01.738Z,8.37
2018-09-24T19:00:41.665Z,4.43
2018-09-24T19:03:21.638Z,7.23
2018-09-24T19:06:01.629Z,4.43
2018-09-24T19:08:41.565Z,7.07
2018-09-24T19:11:27.793Z,7.27
2018-09-24T19:14:06.239Z,4.53
2018-09-24T19:16:46.229Z,3.63
2018-09-24T19:19:26.213Z,6.87
2018-09-24T19:22:06.013Z,7.07
2018-09-24T19:24:45.953Z,5.90
2018-09-24T19:27:25.796Z,7.63
2018-09-24T19:30:05.565Z,13.07
2018-09-24T19:32:45.545Z,4.73
2018-09-24T19:35:25.515Z,8.83
2018-09-24T19:38:05.545Z,14.77
2018-09-24T19:40:45.449Z,9.47
2018-09-24T19:43:25.337Z,3.93
2018-09-24T19:46:05.261Z,4.07
2018-09-24T19:48:45.126Z,9.47
2018-09-24T19:51:24.985Z,5.67
2018-09-24T19:54:04.708Z,8.30
2018-09-24T19:56:44.602Z,4.13
2018-09-24T19:59:24.429Z,6.07
2018-09-24T20:02:04.350Z,5.33
2018-09-24T20:04:44.485Z,4.30
2018-09-24T20:07:24.677Z,4.73
2018-09-24T20:10:04.443Z,6.23
2018-09-24T20:12:44.373Z,7.60
2018-09-24T20:15:24.278Z,7.60
2018-09-24T20:18:04.482Z,7.63
2018-09-24T20:20:44.508Z,6.43
2018-09-24T20:23:24.471Z,6.07
2018-09-24T20:26:04.362Z,4.20
2018-09-24T20:28:44.235Z,3.37
2018-09-24T20:31:24.101Z,6.87
2018-09-24T20:34:15.940Z,6.57
2018-09-24T20:36:55.857Z,5.97
2018-09-24T20:39:36.561Z,6.63
2018-09-24T20:42:16.447Z,5.33
2018-09-24T20:44:56.281Z,4.93
2018-09-24T20:47:36.115Z,2.40
2018-09-24T20:50:21.752Z,6.87
2018-09-24T20:53:13.601Z,5.47
2018-09-24T20:56:03.181Z,4.77
2018-09-24T20:58:43.401Z,6.23
2018-09-24T21:01:23.494Z,6.40
2018-09-24T21:04:03.448Z,4.60
2018-09-24T21:06:43.368Z,8.43
2018-09-24T21:09:23.348Z,5.77
2018-09-24T21:12:03.682Z,9.83
2018-09-24T21:14:43.553Z,3.77
2018-09-24T21:17:23.494Z,6.37
2018-09-24T21:20:03.351Z,15.37
2018-09-24T21:22:43.221Z,10.13
2018-09-24T21:25:23.035Z,8.07
2018-09-24T21:28:02.865Z,6.10
2018-09-24T21:30:42.755Z,5.40
2018-09-24T21:33:22.709Z,6.13
2018-09-24T21:36:02.709Z,8.27
2018-09-24T21:38:42.565Z,7.30
2018-09-24T21:41:22.452Z,6.30
2018-09-24T21:44:02.266Z,5.40
2018-09-24T21:46:42.321Z,4.73
2018-09-24T21:49:22.012Z,9.00
2018-09-24T21:52:01.948Z,8.70
2018-09-24T21:54:41.857Z,3.73
2018-09-24T21:57:21.668Z,11.10
2018-09-24T22:00:01.584Z,5.23
2018-09-24T22:02:41.545Z,6.97
2018-09-24T22:05:21.289Z,13.97
2018-09-24T22:08:01.240Z,8.47
2018-09-24T22:10:41.184Z,6.37
2018-09-24T22:13:21.038Z,7.27
2018-09-24T22:16:00.917Z,10.10
2018-09-24T22:18:40.739Z,8.00
2018-09-24T22:21:20.665Z,7.50
2018-09-24T22:24:00.437Z,5.37
2018-09-24T22:26:40.297Z,6.33
2018-09-24T22:29:20.129Z,7.87
2018-09-24T22:32:00.063Z,7.50
2018-09-24T22:34:39.942Z,9.13
2018-09-24T22:37:19.885Z,13.90
2018-09-24T22:39:59.864Z,11.37
2018-09-24T22:42:39.716Z,5.87
2018-09-24T22:45:19.732Z,11.87
2018-09-24T22:47:59.680Z,7.03
2018-09-24T22:50:39.552Z,7.70
2018-09-24T22:53:19.475Z,9.13
2018-09-24T22:55:59.340Z,9.73
2018-09-24T22:58:39.324Z,12.90
2018-09-24T23:01:19.093Z,5.83
2018-09-24T23:03:59.058Z,9.37
2018-09-24T23:06:38.846Z,7.43
2018-09-24T23:09:18.721Z,10.17
2018-09-24T23:11:58.613Z,8.70
2018-09-24T23:14:38.499Z,9.90
2018-09-24T23:17:18.526Z,10.50
2018-09-24T23:19:58.563Z,12.83
2018-09-24T23:22:38.341Z,11.33
2018-09-24T23:25:18.372Z,8.23
2018-09-24T23:27:58.360Z,9.67
2018-09-24T23:30:38.582Z,12.40
2018-09-24T23:33:18.461Z,8.73
2018-09-24T23:35:58.286Z,12.73
2018-09-24T23:38:38.224Z,9.57
2018-09-24T23:41:18.088Z,13.23
2018-09-24T23:43:58.042Z,12.07
2018-09-24T23:46:37.873Z,13.77
2018-09-24T23:49:17.834Z,11.30
2018-09-24T23:51:57.649Z,10.17
2018-09-24T23:54:37.433Z,7.63
2018-09-24T23:57:17.345Z,8.97
2018-09-24T23:59:57.505Z,9.63
